sensor_id;sensor_type;location;lat;lon;timestamp;P1;durP1;ratioP1;P2;durP2;ratioP2
4508;SDS011;2267;48.816;9.230;2022-12-18T00:01:17;68.30;;;47.00;;
4508;SDS011;2267;48.816;9.230;2022-12-18T00:03:46;73.40;;;49.97;;
4508;SDS011;2267;48.816;9.230;2022-12-18T00:06:14;65.90;;;46.80;;
4508;SDS011;2267;48.816;9.230;2022-12-18T00:08:41;61.60;;;45.90;;
4508;SDS011;2267;48.816;9.230;2022-12-18T00:11:13;71.17;;;49.60;;
4508;SDS011;2267;48.816;9.230;2022-12-18T00:13:42;69.43;;;47.40;;
4508;SDS011;2267;48.816;9.230;2022-12-18T00:16:11;66.23;;;48.43;;
4508;SDS011;2267;48.816;9.230;2022-12-18T00:18:40;67.23;;;47.93;;
4508;SDS011;2267;48.816;9.230;2022-12-18T00:21:09;67.97;;;48.13;;
4508;SDS011;2267;48.816;9.230;2022-12-18T00:23:38;63.87;;;45.90;;
4508;SDS011;2267;48.816;9.230;2022-12-18T00:26:10;67.47;;;47.37;;
4508;SDS011;2267;48.816;9.230;2022-12-18T00:28:41;70.40;;;47.97;;
4508;SDS011;2267;48.816;9.230;2022-12-18T00:31:10;68.67;;;49.93;;
4508;SDS011;2267;48.816;9.230;2022-12-18T00:33:38;69.00;;;49.77;;
4508;SDS011;2267;48.816;9.230;2022-12-18T00:36:09;77.20;;;49.17;;
4508;SDS011;2267;48.816;9.230;2022-12-18T00:38:41;71.80;;;52.10;;
4508;SDS011;2267;48.816;9.230;2022-12-18T00:41:08;66.20;;;47.03;;
4508;SDS011;2267;48.816;9.230;2022-12-18T00:43:37;63.03;;;46.87;;
4508;SDS011;2267;48.816;9.230;2022-12-18T00:46:05;64.20;;;46.70;;
4508;SDS011;2267;48.816;9.230;2022-12-18T00:48:32;70.30;;;49.30;;
4508;SDS011;2267;48.816;9.230;2022-12-18T00:50:59;70.80;;;47.00;;
4508;SDS011;2267;48.816;9.230;2022-12-18T00:53:25;62.20;;;45.87;;
4508;SDS011;2267;48.816;9.230;2022-12-18T00:55:52;66.50;;;45.93;;
4508;SDS011;2267;48.816;9.230;2022-12-18T00:58:19;70.67;;;48.27;;
4508;SDS011;2267;48.816;9.230;2022-12-18T01:00:45;67.90;;;47.23;;
4508;SDS011;2267;48.816;9.230;2022-12-18T01:03:13;63.70;;;45.63;;
4508;SDS011;2267;48.816;9.230;2022-12-18T01:05:41;66.00;;;46.40;;
4508;SDS011;2267;48.816;9.230;2022-12-18T01:08:08;67.23;;;48.23;;
4508;SDS011;2267;48.816;9.230;2022-12-18T01:10:35;70.40;;;49.60;;
4508;SDS011;2267;48.816;9.230;2022-12-18T01:13:02;69.80;;;50.20;;
4508;SDS011;2267;48.816;9.230;2022-12-18T01:15:29;62.70;;;44.60;;
4508;SDS011;2267;48.816;9.230;2022-12-18T01:17:56;68.57;;;47.93;;
4508;SDS011;2267;48.816;9.230;2022-12-18T01:20:22;64.37;;;45.77;;
4508;SDS011;2267;48.816;9.230;2022-12-18T01:22:49;68.50;;;46.03;;
4508;SDS011;2267;48.816;9.230;2022-12-18T01:25:16;69.07;;;44.77;;
4508;SDS011;2267;48.816;9.230;2022-12-18T01:27:43;63.13;;;44.40;;
4508;SDS011;2267;48.816;9.230;2022-12-18T01:30:10;67.60;;;47.10;;
4508;SDS011;2267;48.816;9.230;2022-12-18T01:32:37;68.90;;;44.80;;
4508;SDS011;2267;48.816;9.230;2022-12-18T01:35:04;69.57;;;46.57;;
4508;SDS011;2267;48.816;9.230;2022-12-18T01:37:31;71.03;;;45.60;;
4508;SDS011;2267;48.816;9.230;2022-12-18T01:39:58;65.23;;;46.47;;
4508;SDS011;2267;48.816;9.230;2022-12-18T01:42:25;68.90;;;47.27;;
4508;SDS011;2267;48.816;9.230;2022-12-18T01:44:57;64.23;;;43.80;;
4508;SDS011;2267;48.816;9.230;2022-12-18T01:49:59;66.93;;;44.13;;
4508;SDS011;2267;48.816;9.230;2022-12-18T01:52:30;62.23;;;41.60;;
4508;SDS011;2267;48.816;9.230;2022-12-18T01:54:59;68.67;;;43.90;;
4508;SDS011;2267;48.816;9.230;2022-12-18T01:57:26;66.20;;;44.80;;
4508;SDS011;2267;48.816;9.230;2022-12-18T01:59:56;65.63;;;44.57;;
4508;SDS011;2267;48.816;9.230;2022-12-18T02:02:28;79.97;;;47.50;;
4508;SDS011;2267;48.816;9.230;2022-12-18T02:04:55;76.87;;;50.07;;
4508;SDS011;2267;48.816;9.230;2022-12-18T02:10:03;65.50;;;43.43;;
4508;SDS011;2267;48.816;9.230;2022-12-18T02:12:42;66.10;;;43.03;;
4508;SDS011;2267;48.816;9.230;2022-12-18T02:15:32;65.93;;;46.00;;
4508;SDS011;2267;48.816;9.230;2022-12-18T02:18:11;64.03;;;41.60;;
4508;SDS011;2267;48.816;9.230;2022-12-18T02:21:12;64.70;;;44.20;;
4508;SDS011;2267;48.816;9.230;2022-12-18T02:29:06;67.00;;;45.30;;
4508;SDS011;2267;48.816;9.230;2022-12-18T02:31:39;69.27;;;47.50;;
4508;SDS011;2267;48.816;9.230;2022-12-18T02:34:21;60.90;;;39.27;;
4508;SDS011;2267;48.816;9.230;2022-12-18T02:36:52;59.13;;;42.33;;
4508;SDS011;2267;48.816;9.230;2022-12-18T02:39:20;56.83;;;41.10;;
4508;SDS011;2267;48.816;9.230;2022-12-18T02:41:49;63.03;;;42.60;;
4508;SDS011;2267;48.816;9.230;2022-12-18T02:44:17;58.77;;;40.77;;
4508;SDS011;2267;48.816;9.230;2022-12-18T02:46:45;59.80;;;39.63;;
4508;SDS011;2267;48.816;9.230;2022-12-18T03:00:58;51.90;;;39.23;;
4508;SDS011;2267;48.816;9.230;2022-12-18T03:03:28;55.23;;;38.63;;
4508;SDS011;2267;48.816;9.230;2022-12-18T03:06:04;52.70;;;39.27;;
4508;SDS011;2267;48.816;9.230;2022-12-18T03:08:39;53.23;;;36.87;;
4508;SDS011;2267;48.816;9.230;2022-12-18T03:11:10;46.90;;;36.10;;
4508;SDS011;2267;48.816;9.230;2022-12-18T03:13:45;52.33;;;37.13;;
4508;SDS011;2267;48.816;9.230;2022-12-18T03:16:23;49.83;;;35.73;;
4508;SDS011;2267;48.816;9.230;2022-12-18T03:18:57;49.13;;;37.80;;
4508;SDS011;2267;48.816;9.230;2022-12-18T03:21:29;49.77;;;36.77;;
4508;SDS011;2267;48.816;9.230;2022-12-18T03:24:03;52.30;;;35.77;;
4508;SDS011;2267;48.816;9.230;2022-12-18T03:26:35;51.80;;;38.50;;
4508;SDS011;2267;48.816;9.230;2022-12-18T03:29:07;49.33;;;37.70;;
4508;SDS011;2267;48.816;9.230;2022-12-18T03:31:40;50.07;;;35.53;;
4508;SDS011;2267;48.816;9.230;2022-12-18T03:34:14;45.50;;;34.43;;
4508;SDS011;2267;48.816;9.230;2022-12-18T03:36:43;49.27;;;37.43;;
4508;SDS011;2267;48.816;9.230;2022-12-18T03:39:10;50.73;;;35.63;;
4508;SDS011;2267;48.816;9.230;2022-12-18T03:41:44;49.10;;;36.83;;
4508;SDS011;2267;48.816;9.230;2022-12-18T03:44:15;44.70;;;33.53;;
4508;SDS011;2267;48.816;9.230;2022-12-18T03:49:35;52.43;;;35.10;;
4508;SDS011;2267;48.816;9.230;2022-12-18T03:54:50;49.93;;;35.23;;
4508;SDS011;2267;48.816;9.230;2022-12-18T03:57:19;43.77;;;33.17;;
4508;SDS011;2267;48.816;9.230;2022-12-18T03:59:49;46.97;;;34.27;;
4508;SDS011;2267;48.816;9.230;2022-12-18T04:02:20;48.17;;;35.90;;
4508;SDS011;2267;48.816;9.230;2022-12-18T04:04:51;41.30;;;32.83;;
4508;SDS011;2267;48.816;9.230;2022-12-18T04:07:21;42.20;;;32.03;;
4508;SDS011;2267;48.816;9.230;2022-12-18T04:09:49;45.40;;;34.63;;
4508;SDS011;2267;48.816;9.230;2022-12-18T04:12:20;50.80;;;33.67;;
4508;SDS011;2267;48.816;9.230;2022-12-18T04:14:46;50.70;;;36.37;;
4508;SDS011;2267;48.816;9.230;2022-12-18T04:17:13;49.87;;;35.43;;
4508;SDS011;2267;48.816;9.230;2022-12-18T04:19:40;49.23;;;36.23;;
4508;SDS011;2267;48.816;9.230;2022-12-18T04:22:08;50.10;;;35.00;;
4508;SDS011;2267;48.816;9.230;2022-12-18T04:24:36;50.73;;;38.73;;
4508;SDS011;2267;48.816;9.230;2022-12-18T04:27:03;53.07;;;37.33;;
4508;SDS011;2267;48.816;9.230;2022-12-18T04:29:31;49.10;;;36.17;;
4508;SDS011;2267;48.816;9.230;2022-12-18T04:31:58;50.87;;;34.80;;
4508;SDS011;2267;48.816;9.230;2022-12-18T04:34:25;50.57;;;35.60;;
4508;SDS011;2267;48.816;9.230;2022-12-18T04:36:51;48.30;;;34.50;;
4508;SDS011;2267;48.816;9.230;2022-12-18T04:39:18;51.00;;;36.80;;
4508;SDS011;2267;48.816;9.230;2022-12-18T04:41:45;53.90;;;37.87;;
4508;SDS011;2267;48.816;9.230;2022-12-18T04:44:12;45.20;;;34.73;;
4508;SDS011;2267;48.816;9.230;2022-12-18T04:46:39;50.70;;;34.77;;
4508;SDS011;2267;48.816;9.230;2022-12-18T04:49:06;52.77;;;38.30;;
4508;SDS011;2267;48.816;9.230;2022-12-18T04:51:32;49.97;;;37.20;;
4508;SDS011;2267;48.816;9.230;2022-12-18T04:53:59;47.40;;;34.83;;
4508;SDS011;2267;48.816;9.230;2022-12-18T04:56:26;54.77;;;38.03;;
4508;SDS011;2267;48.816;9.230;2022-12-18T04:58:52;54.20;;;39.70;;
4508;SDS011;2267;48.816;9.230;2022-12-18T05:01:20;50.80;;;37.83;;
4508;SDS011;2267;48.816;9.230;2022-12-18T05:03:47;51.07;;;37.10;;
4508;SDS011;2267;48.816;9.230;2022-12-18T05:06:14;52.57;;;37.53;;
4508;SDS011;2267;48.816;9.230;2022-12-18T05:08:41;50.60;;;36.60;;
4508;SDS011;2267;48.816;9.230;2022-12-18T05:11:09;45.63;;;33.50;;
4508;SDS011;2267;48.816;9.230;2022-12-18T05:13:37;49.83;;;36.80;;
4508;SDS011;2267;48.816;9.230;2022-12-18T05:16:05;49.40;;;34.47;;
4508;SDS011;2267;48.816;9.230;2022-12-18T05:18:32;49.30;;;35.13;;
4508;SDS011;2267;48.816;9.230;2022-12-18T05:21:00;46.40;;;34.60;;
4508;SDS011;2267;48.816;9.230;2022-12-18T05:23:27;52.33;;;37.93;;
4508;SDS011;2267;48.816;9.230;2022-12-18T05:25:55;50.97;;;35.17;;
4508;SDS011;2267;48.816;9.230;2022-12-18T05:28:24;44.80;;;34.40;;
4508;SDS011;2267;48.816;9.230;2022-12-18T05:30:52;46.40;;;34.53;;
4508;SDS011;2267;48.816;9.230;2022-12-18T05:33:24;43.97;;;31.80;;
4508;SDS011;2267;48.816;9.230;2022-12-18T05:35:53;47.50;;;33.53;;
4508;SDS011;2267;48.816;9.230;2022-12-18T05:38:21;45.97;;;35.10;;
4508;SDS011;2267;48.816;9.230;2022-12-18T05:40:49;45.67;;;33.03;;
4508;SDS011;2267;48.816;9.230;2022-12-18T05:43:17;44.20;;;33.87;;
4508;SDS011;2267;48.816;9.230;2022-12-18T05:45:47;42.47;;;32.43;;
4508;SDS011;2267;48.816;9.230;2022-12-18T05:48:14;48.00;;;34.43;;
4508;SDS011;2267;48.816;9.230;2022-12-18T05:50:42;47.93;;;34.77;;
4508;SDS011;2267;48.816;9.230;2022-12-18T05:53:12;53.00;;;35.27;;
4508;SDS011;2267;48.816;9.230;2022-12-18T05:55:43;47.00;;;32.77;;
4508;SDS011;2267;48.816;9.230;2022-12-18T05:58:11;43.23;;;33.10;;
4508;SDS011;2267;48.816;9.230;2022-12-18T06:00:40;43.80;;;31.40;;
4508;SDS011;2267;48.816;9.230;2022-12-18T06:03:09;44.13;;;32.47;;
4508;SDS011;2267;48.816;9.230;2022-12-18T06:05:38;42.60;;;32.50;;
4508;SDS011;2267;48.816;9.230;2022-12-18T06:08:07;41.90;;;31.30;;
4508;SDS011;2267;48.816;9.230;2022-12-18T06:10:35;44.37;;;33.00;;
4508;SDS011;2267;48.816;9.230;2022-12-18T06:13:02;48.73;;;34.30;;
4508;SDS011;2267;48.816;9.230;2022-12-18T06:15:28;47.53;;;33.43;;
4508;SDS011;2267;48.816;9.230;2022-12-18T06:17:55;44.13;;;33.00;;
4508;SDS011;2267;48.816;9.230;2022-12-18T06:20:22;46.33;;;33.13;;
4508;SDS011;2267;48.816;9.230;2022-12-18T06:22:55;47.20;;;32.17;;
4508;SDS011;2267;48.816;9.230;2022-12-18T06:25:22;42.83;;;31.90;;
4508;SDS011;2267;48.816;9.230;2022-12-18T06:27:49;41.50;;;32.03;;
4508;SDS011;2267;48.816;9.230;2022-12-18T06:30:15;48.60;;;34.03;;
4508;SDS011;2267;48.816;9.230;2022-12-18T06:32:42;45.27;;;31.50;;
4508;SDS011;2267;48.816;9.230;2022-12-18T06:35:11;49.33;;;34.07;;
4508;SDS011;2267;48.816;9.230;2022-12-18T06:37:37;43.10;;;33.20;;
4508;SDS011;2267;48.816;9.230;2022-12-18T06:40:04;46.50;;;33.20;;
4508;SDS011;2267;48.816;9.230;2022-12-18T06:42:32;49.83;;;36.63;;
4508;SDS011;2267;48.816;9.230;2022-12-18T06:44:58;48.77;;;33.57;;
4508;SDS011;2267;48.816;9.230;2022-12-18T06:47:25;45.53;;;33.50;;
4508;SDS011;2267;48.816;9.230;2022-12-18T06:49:52;45.47;;;32.80;;
4508;SDS011;2267;48.816;9.230;2022-12-18T06:52:19;43.77;;;33.50;;
4508;SDS011;2267;48.816;9.230;2022-12-18T06:54:45;42.00;;;32.40;;
4508;SDS011;2267;48.816;9.230;2022-12-18T06:57:12;40.00;;;32.13;;
4508;SDS011;2267;48.816;9.230;2022-12-18T06:59:39;40.73;;;30.63;;
4508;SDS011;2267;48.816;9.230;2022-12-18T07:02:05;44.43;;;32.77;;
4508;SDS011;2267;48.816;9.230;2022-12-18T07:04:32;41.50;;;32.73;;
4508;SDS011;2267;48.816;9.230;2022-12-18T07:06:59;44.97;;;33.50;;
4508;SDS011;2267;48.816;9.230;2022-12-18T07:09:26;41.40;;;31.40;;
4508;SDS011;2267;48.816;9.230;2022-12-18T07:11:55;39.70;;;30.97;;
4508;SDS011;2267;48.816;9.230;2022-12-18T07:14:23;40.60;;;31.50;;
4508;SDS011;2267;48.816;9.230;2022-12-18T07:16:49;37.80;;;29.20;;
4508;SDS011;2267;48.816;9.230;2022-12-18T07:19:16;41.37;;;30.53;;
4508;SDS011;2267;48.816;9.230;2022-12-18T07:21:43;38.70;;;30.80;;
4508;SDS011;2267;48.816;9.230;2022-12-18T07:24:09;38.67;;;30.60;;
4508;SDS011;2267;48.816;9.230;2022-12-18T07:26:36;35.63;;;30.47;;
4508;SDS011;2267;48.816;9.230;2022-12-18T07:29:03;46.73;;;33.80;;
4508;SDS011;2267;48.816;9.230;2022-12-18T07:31:30;43.70;;;32.83;;
4508;SDS011;2267;48.816;9.230;2022-12-18T07:33:57;42.00;;;30.63;;
4508;SDS011;2267;48.816;9.230;2022-12-18T07:36:23;39.77;;;30.47;;
4508;SDS011;2267;48.816;9.230;2022-12-18T07:38:50;44.77;;;34.23;;
4508;SDS011;2267;48.816;9.230;2022-12-18T07:41:18;43.27;;;33.10;;
4508;SDS011;2267;48.816;9.230;2022-12-18T07:43:46;39.77;;;31.43;;
4508;SDS011;2267;48.816;9.230;2022-12-18T07:46:13;41.33;;;32.70;;
4508;SDS011;2267;48.816;9.230;2022-12-18T07:48:42;40.67;;;32.63;;
4508;SDS011;2267;48.816;9.230;2022-12-18T07:51:14;44.17;;;32.77;;
4508;SDS011;2267;48.816;9.230;2022-12-18T07:53:41;39.70;;;31.03;;
4508;SDS011;2267;48.816;9.230;2022-12-18T07:56:09;40.03;;;32.67;;
4508;SDS011;2267;48.816;9.230;2022-12-18T07:58:56;39.53;;;32.30;;
4508;SDS011;2267;48.816;9.230;2022-12-18T08:01:24;42.97;;;33.20;;
4508;SDS011;2267;48.816;9.230;2022-12-18T08:03:51;42.23;;;31.70;;
4508;SDS011;2267;48.816;9.230;2022-12-18T08:06:18;38.50;;;31.20;;
4508;SDS011;2267;48.816;9.230;2022-12-18T08:08:52;41.90;;;32.37;;
4508;SDS011;2267;48.816;9.230;2022-12-18T08:11:20;41.17;;;33.47;;
4508;SDS011;2267;48.816;9.230;2022-12-18T08:13:47;43.87;;;33.80;;
4508;SDS011;2267;48.816;9.230;2022-12-18T08:16:15;44.60;;;33.40;;
4508;SDS011;2267;48.816;9.230;2022-12-18T08:18:42;40.00;;;32.93;;
4508;SDS011;2267;48.816;9.230;2022-12-18T08:21:10;46.77;;;33.97;;
4508;SDS011;2267;48.816;9.230;2022-12-18T08:23:38;44.87;;;33.97;;
4508;SDS011;2267;48.816;9.230;2022-12-18T08:26:09;45.13;;;34.17;;
4508;SDS011;2267;48.816;9.230;2022-12-18T08:28:39;48.53;;;34.87;;
4508;SDS011;2267;48.816;9.230;2022-12-18T08:31:07;41.40;;;32.50;;
4508;SDS011;2267;48.816;9.230;2022-12-18T08:33:35;39.60;;;31.40;;
4508;SDS011;2267;48.816;9.230;2022-12-18T08:36:04;44.20;;;32.87;;
4508;SDS011;2267;48.816;9.230;2022-12-18T08:38:32;40.00;;;30.93;;
4508;SDS011;2267;48.816;9.230;2022-12-18T08:41:00;48.20;;;34.67;;
4508;SDS011;2267;48.816;9.230;2022-12-18T08:43:27;48.50;;;35.50;;
4508;SDS011;2267;48.816;9.230;2022-12-18T08:46:12;43.77;;;34.40;;
4508;SDS011;2267;48.816;9.230;2022-12-18T08:48:42;43.47;;;35.10;;
4508;SDS011;2267;48.816;9.230;2022-12-18T08:51:09;46.83;;;35.63;;
4508;SDS011;2267;48.816;9.230;2022-12-18T08:53:37;44.63;;;34.73;;
4508;SDS011;2267;48.816;9.230;2022-12-18T08:56:04;44.43;;;34.60;;
4508;SDS011;2267;48.816;9.230;2022-12-18T08:58:31;41.20;;;31.63;;
4508;SDS011;2267;48.816;9.230;2022-12-18T09:01:05;42.40;;;34.10;;
4508;SDS011;2267;48.816;9.230;2022-12-18T09:03:33;44.90;;;35.53;;
4508;SDS011;2267;48.816;9.230;2022-12-18T09:06:00;45.27;;;34.17;;
4508;SDS011;2267;48.816;9.230;2022-12-18T09:08:27;52.10;;;36.67;;
4508;SDS011;2267;48.816;9.230;2022-12-18T09:10:54;43.70;;;33.40;;
4508;SDS011;2267;48.816;9.230;2022-12-18T09:13:21;44.50;;;33.93;;
4508;SDS011;2267;48.816;9.230;2022-12-18T09:15:50;42.13;;;33.17;;
4508;SDS011;2267;48.816;9.230;2022-12-18T09:18:19;45.07;;;34.83;;
4508;SDS011;2267;48.816;9.230;2022-12-18T09:20:47;45.83;;;33.43;;
4508;SDS011;2267;48.816;9.230;2022-12-18T09:23:13;47.13;;;36.23;;
4508;SDS011;2267;48.816;9.230;2022-12-18T09:25:40;45.43;;;34.80;;
4508;SDS011;2267;48.816;9.230;2022-12-18T09:28:14;48.70;;;34.83;;
4508;SDS011;2267;48.816;9.230;2022-12-18T09:30:46;41.40;;;33.73;;
4508;SDS011;2267;48.816;9.230;2022-12-18T09:33:15;42.63;;;34.73;;
4508;SDS011;2267;48.816;9.230;2022-12-18T09:35:43;43.50;;;35.70;;
4508;SDS011;2267;48.816;9.230;2022-12-18T09:38:12;48.40;;;35.97;;
4508;SDS011;2267;48.816;9.230;2022-12-18T09:40:43;46.93;;;38.17;;
4508;SDS011;2267;48.816;9.230;2022-12-18T09:43:17;46.10;;;36.13;;
4508;SDS011;2267;48.816;9.230;2022-12-18T09:46:00;46.30;;;36.13;;
4508;SDS011;2267;48.816;9.230;2022-12-18T09:48:32;45.47;;;36.30;;
4508;SDS011;2267;48.816;9.230;2022-12-18T09:51:05;50.43;;;36.50;;
4508;SDS011;2267;48.816;9.230;2022-12-18T09:53:38;48.03;;;36.60;;
4508;SDS011;2267;48.816;9.230;2022-12-18T09:56:12;46.33;;;37.50;;
4508;SDS011;2267;48.816;9.230;2022-12-18T09:58:47;43.80;;;35.07;;
4508;SDS011;2267;48.816;9.230;2022-12-18T10:01:21;47.93;;;35.60;;
4508;SDS011;2267;48.816;9.230;2022-12-18T10:03:49;46.80;;;36.57;;
4508;SDS011;2267;48.816;9.230;2022-12-18T10:09:04;42.00;;;35.60;;
4508;SDS011;2267;48.816;9.230;2022-12-18T10:14:26;45.07;;;36.53;;
4508;SDS011;2267;48.816;9.230;2022-12-18T10:19:53;42.53;;;32.57;;
4508;SDS011;2267;48.816;9.230;2022-12-18T10:22:33;40.03;;;32.87;;
4508;SDS011;2267;48.816;9.230;2022-12-18T10:27:40;42.30;;;34.00;;
4508;SDS011;2267;48.816;9.230;2022-12-18T10:30:14;42.90;;;33.10;;
4508;SDS011;2267;48.816;9.230;2022-12-18T10:32:43;40.63;;;33.63;;
4508;SDS011;2267;48.816;9.230;2022-12-18T10:35:31;41.00;;;36.90;;
4508;SDS011;2267;48.816;9.230;2022-12-18T10:43:15;41.30;;;32.17;;
4508;SDS011;2267;48.816;9.230;2022-12-18T10:46:00;40.97;;;36.77;;
4508;SDS011;2267;48.816;9.230;2022-12-18T10:48:32;40.03;;;35.73;;
4508;SDS011;2267;48.816;9.230;2022-12-18T10:51:07;39.50;;;35.40;;
4508;SDS011;2267;48.816;9.230;2022-12-18T10:53:38;39.50;;;34.67;;
4508;SDS011;2267;48.816;9.230;2022-12-18T10:56:07;39.07;;;34.93;;
4508;SDS011;2267;48.816;9.230;2022-12-18T10:58:35;40.17;;;35.20;;
4508;SDS011;2267;48.816;9.230;2022-12-18T11:01:16;39.63;;;32.10;;
4508;SDS011;2267;48.816;9.230;2022-12-18T11:03:47;39.47;;;30.10;;
4508;SDS011;2267;48.816;9.230;2022-12-18T11:06:28;42.40;;;31.70;;
4508;SDS011;2267;48.816;9.230;2022-12-18T11:09:03;38.90;;;30.67;;
4508;SDS011;2267;48.816;9.230;2022-12-18T11:11:39;35.97;;;28.37;;
4508;SDS011;2267;48.816;9.230;2022-12-18T11:14:06;35.33;;;30.93;;
4508;SDS011;2267;48.816;9.230;2022-12-18T11:16:47;36.20;;;29.73;;
4508;SDS011;2267;48.816;9.230;2022-12-18T11:19:36;38.00;;;33.70;;
4508;SDS011;2267;48.816;9.230;2022-12-18T11:25:01;40.57;;;30.93;;
4508;SDS011;2267;48.816;9.230;2022-12-18T11:27:56;38.33;;;30.63;;
4508;SDS011;2267;48.816;9.230;2022-12-18T11:30:29;40.30;;;31.97;;
4508;SDS011;2267;48.816;9.230;2022-12-18T11:33:04;42.90;;;32.60;;
4508;SDS011;2267;48.816;9.230;2022-12-18T11:35:52;42.87;;;32.00;;
4508;SDS011;2267;48.816;9.230;2022-12-18T11:38:41;39.40;;;31.90;;
4508;SDS011;2267;48.816;9.230;2022-12-18T11:44:19;37.80;;;32.47;;
4508;SDS011;2267;48.816;9.230;2022-12-18T11:46:51;43.50;;;33.13;;
4508;SDS011;2267;48.816;9.230;2022-12-18T11:49:33;41.90;;;32.43;;
4508;SDS011;2267;48.816;9.230;2022-12-18T11:54:38;39.00;;;31.57;;
4508;SDS011;2267;48.816;9.230;2022-12-18T11:57:09;40.53;;;33.20;;
4508;SDS011;2267;48.816;9.230;2022-12-18T12:00:01;43.07;;;32.10;;
4508;SDS011;2267;48.816;9.230;2022-12-18T12:19:30;39.73;;;35.50;;
4508;SDS011;2267;48.816;9.230;2022-12-18T12:22:21;41.83;;;37.50;;
4508;SDS011;2267;48.816;9.230;2022-12-18T12:30:30;39.57;;;35.50;;
4508;SDS011;2267;48.816;9.230;2022-12-18T12:39:03;39.67;;;35.40;;
4508;SDS011;2267;48.816;9.230;2022-12-18T12:41:36;40.67;;;36.50;;
4508;SDS011;2267;48.816;9.230;2022-12-18T12:44:27;41.30;;;36.80;;
4508;SDS011;2267;48.816;9.230;2022-12-18T12:47:00;40.60;;;36.67;;
4508;SDS011;2267;48.816;9.230;2022-12-18T12:49:33;40.80;;;36.30;;
4508;SDS011;2267;48.816;9.230;2022-12-18T12:52:07;40.20;;;36.10;;
4508;SDS011;2267;48.816;9.230;2022-12-18T12:54:40;41.00;;;36.30;;
4508;SDS011;2267;48.816;9.230;2022-12-18T13:00:17;42.63;;;38.03;;
4508;SDS011;2267;48.816;9.230;2022-12-18T13:05:33;40.90;;;36.47;;
4508;SDS011;2267;48.816;9.230;2022-12-18T13:08:08;38.67;;;34.67;;
4508;SDS011;2267;48.816;9.230;2022-12-18T13:10:40;38.47;;;34.47;;
4508;SDS011;2267;48.816;9.230;2022-12-18T13:13:15;43.77;;;34.50;;
4508;SDS011;2267;48.816;9.230;2022-12-18T13:15:49;40.47;;;35.40;;
4508;SDS011;2267;48.816;9.230;2022-12-18T13:18:33;40.23;;;35.70;;
4508;SDS011;2267;48.816;9.230;2022-12-18T13:21:02;37.13;;;33.13;;
4508;SDS011;2267;48.816;9.230;2022-12-18T13:23:36;38.27;;;34.37;;
4508;SDS011;2267;48.816;9.230;2022-12-18T13:36:31;38.07;;;34.03;;
4508;SDS011;2267;48.816;9.230;2022-12-18T13:39:20;37.80;;;33.90;;
4508;SDS011;2267;48.816;9.230;2022-12-18T13:44:34;37.53;;;33.60;;
4508;SDS011;2267;48.816;9.230;2022-12-18T13:49:54;38.17;;;34.10;;
4508;SDS011;2267;48.816;9.230;2022-12-18T13:52:26;36.80;;;33.03;;
4508;SDS011;2267;48.816;9.230;2022-12-18T13:55:00;38.23;;;33.07;;
4508;SDS011;2267;48.816;9.230;2022-12-18T13:57:32;40.60;;;36.30;;
4508;SDS011;2267;48.816;9.230;2022-12-18T14:02:49;36.20;;;32.43;;
4508;SDS011;2267;48.816;9.230;2022-12-18T14:05:23;37.93;;;34.00;;
4508;SDS011;2267;48.816;9.230;2022-12-18T14:08:10;37.40;;;32.67;;
4508;SDS011;2267;48.816;9.230;2022-12-18T14:10:47;39.73;;;35.43;;
4508;SDS011;2267;48.816;9.230;2022-12-18T14:13:19;41.90;;;34.20;;
4508;SDS011;2267;48.816;9.230;2022-12-18T14:15:47;35.57;;;31.73;;
4508;SDS011;2267;48.816;9.230;2022-12-18T14:20:49;39.97;;;35.60;;
4508;SDS011;2267;48.816;9.230;2022-12-18T14:23:54;37.37;;;33.50;;
4508;SDS011;2267;48.816;9.230;2022-12-18T14:26:22;37.40;;;33.40;;
4508;SDS011;2267;48.816;9.230;2022-12-18T14:28:55;39.67;;;35.43;;
4508;SDS011;2267;48.816;9.230;2022-12-18T14:31:26;38.47;;;34.37;;
4508;SDS011;2267;48.816;9.230;2022-12-18T14:33:57;43.50;;;36.70;;
4508;SDS011;2267;48.816;9.230;2022-12-18T14:36:25;42.70;;;38.30;;
4508;SDS011;2267;48.816;9.230;2022-12-18T14:38:54;41.10;;;36.70;;
4508;SDS011;2267;48.816;9.230;2022-12-18T14:41:22;40.00;;;35.80;;
4508;SDS011;2267;48.816;9.230;2022-12-18T14:43:51;37.27;;;33.43;;
4508;SDS011;2267;48.816;9.230;2022-12-18T14:49:00;41.97;;;37.37;;
4508;SDS011;2267;48.816;9.230;2022-12-18T14:51:32;43.97;;;38.17;;
4508;SDS011;2267;48.816;9.230;2022-12-18T14:54:06;35.90;;;32.10;;
4508;SDS011;2267;48.816;9.230;2022-12-18T14:56:43;44.20;;;39.30;;
4508;SDS011;2267;48.816;9.230;2022-12-18T14:59:16;46.37;;;41.30;;
4508;SDS011;2267;48.816;9.230;2022-12-18T15:02:13;46.20;;;41.30;;
4508;SDS011;2267;48.816;9.230;2022-12-18T15:07:48;49.77;;;44.43;;
4508;SDS011;2267;48.816;9.230;2022-12-18T15:15:55;48.77;;;43.63;;
4508;SDS011;2267;48.816;9.230;2022-12-18T15:18:16;46.77;;;40.90;;
4508;SDS011;2267;48.816;9.230;2022-12-18T15:20:47;49.80;;;44.37;;
4508;SDS011;2267;48.816;9.230;2022-12-18T15:23:26;50.60;;;45.30;;
4508;SDS011;2267;48.816;9.230;2022-12-18T15:26:18;44.90;;;40.13;;
4508;SDS011;2267;48.816;9.230;2022-12-18T15:28:50;46.60;;;41.80;;
4508;SDS011;2267;48.816;9.230;2022-12-18T15:31:34;44.37;;;39.63;;
4508;SDS011;2267;48.816;9.230;2022-12-18T15:36:34;46.50;;;41.50;;
4508;SDS011;2267;48.816;9.230;2022-12-18T15:39:04;53.63;;;41.47;;
4508;SDS011;2267;48.816;9.230;2022-12-18T15:41:32;45.47;;;40.60;;
4508;SDS011;2267;48.816;9.230;2022-12-18T15:44:01;51.77;;;45.70;;
4508;SDS011;2267;48.816;9.230;2022-12-18T15:46:29;47.90;;;42.33;;
4508;SDS011;2267;48.816;9.230;2022-12-18T15:48:57;49.63;;;44.20;;
4508;SDS011;2267;48.816;9.230;2022-12-18T15:53:59;47.40;;;42.20;;
4508;SDS011;2267;48.816;9.230;2022-12-18T15:56:29;47.47;;;42.33;;
4508;SDS011;2267;48.816;9.230;2022-12-18T15:59:16;44.97;;;40.07;;
4508;SDS011;2267;48.816;9.230;2022-12-18T16:01:45;50.30;;;43.80;;
4508;SDS011;2267;48.816;9.230;2022-12-18T16:04:15;52.23;;;44.50;;
4508;SDS011;2267;48.816;9.230;2022-12-18T16:06:44;47.90;;;42.30;;
4508;SDS011;2267;48.816;9.230;2022-12-18T16:09:30;48.37;;;43.17;;
4508;SDS011;2267;48.816;9.230;2022-12-18T16:12:00;46.63;;;41.47;;
4508;SDS011;2267;48.816;9.230;2022-12-18T16:14:29;47.97;;;41.90;;
4508;SDS011;2267;48.816;9.230;2022-12-18T16:16:57;45.73;;;40.80;;
4508;SDS011;2267;48.816;9.230;2022-12-18T16:19:26;45.83;;;40.97;;
4508;SDS011;2267;48.816;9.230;2022-12-18T16:21:55;44.53;;;39.80;;
4508;SDS011;2267;48.816;9.230;2022-12-18T16:24:27;49.37;;;44.00;;
4508;SDS011;2267;48.816;9.230;2022-12-18T16:26:57;47.20;;;42.10;;
4508;SDS011;2267;48.816;9.230;2022-12-18T16:29:26;49.33;;;44.00;;
4508;SDS011;2267;48.816;9.230;2022-12-18T16:31:54;50.13;;;42.90;;
4508;SDS011;2267;48.816;9.230;2022-12-18T16:34:22;46.07;;;41.23;;
4508;SDS011;2267;48.816;9.230;2022-12-18T16:36:59;53.70;;;45.43;;
4508;SDS011;2267;48.816;9.230;2022-12-18T16:39:31;50.13;;;44.83;;
4508;SDS011;2267;48.816;9.230;2022-12-18T16:42:03;52.83;;;47.33;;
4508;SDS011;2267;48.816;9.230;2022-12-18T16:44:36;51.90;;;46.40;;
4508;SDS011;2267;48.816;9.230;2022-12-18T16:47:03;50.03;;;44.77;;
4508;SDS011;2267;48.816;9.230;2022-12-18T16:49:31;52.67;;;46.13;;
4508;SDS011;2267;48.816;9.230;2022-12-18T16:51:58;50.03;;;44.63;;
4508;SDS011;2267;48.816;9.230;2022-12-18T16:54:28;49.40;;;44.23;;
4508;SDS011;2267;48.816;9.230;2022-12-18T16:56:55;50.07;;;44.87;;
4508;SDS011;2267;48.816;9.230;2022-12-18T16:59:23;55.13;;;49.23;;
4508;SDS011;2267;48.816;9.230;2022-12-18T17:01:51;51.77;;;46.07;;
4508;SDS011;2267;48.816;9.230;2022-12-18T17:04:18;51.03;;;45.73;;
4508;SDS011;2267;48.816;9.230;2022-12-18T17:06:45;52.63;;;46.90;;
4508;SDS011;2267;48.816;9.230;2022-12-18T17:09:17;59.53;;;53.17;;
4508;SDS011;2267;48.816;9.230;2022-12-18T17:11:52;54.40;;;48.50;;
4508;SDS011;2267;48.816;9.230;2022-12-18T17:14:20;44.93;;;40.50;;